Terminal Aerodrome Forecast
Issued by NWS

Home | Current Version | Previous Version | Text Only | Print | Product List | Glossary On
Versions: 1 2 3 4 5 6 7 8 9 10 11 12 13 14 15 16 17 18 19 20 21 22 23 24 25 26 27 28 29 30 31 32 33 34 35 36
000
FTUS41 KBOX 191128
TAFACK
TAF
KACK 191128Z 1912/2012 20018G27KT 4SM BR BKN025 WS020/22050KT
     FM191700 20018G26KT 5SM BR BKN025 WS020/22050KT
     FM192200 18018G28KT 3/4SM BR OVC010 WS020/22050KT
     FM200400 18020KT 1/2SM FG BKN008 WS020/21055KT
     FM200500 18019G26KT 3/4SM BR BKN008 WS020/21055KT
     FM201000 18020KT 1/2SM FG VCSH OVC003 WS020/20055KT=

USA.gov is the U.S. government's official web portal to all federal, state and local government web resources and services.